sensor_id;sensor_type;location;lat;lon;timestamp;temperature;humidity
10051;DHT22;5065;46.942;7.432;2023-01-15T00:00:10;11.40;99.90
10051;DHT22;5065;46.942;7.432;2023-01-15T00:02:38;11.40;99.90
10051;DHT22;5065;46.942;7.432;2023-01-15T00:05:06;11.40;99.90
10051;DHT22;5065;46.942;7.432;2023-01-15T00:07:33;11.40;99.90
10051;DHT22;5065;46.942;7.432;2023-01-15T00:10:00;11.40;99.90
10051;DHT22;5065;46.942;7.432;2023-01-15T00:12:27;11.40;99.90
10051;DHT22;5065;46.942;7.432;2023-01-15T00:14:54;11.40;99.90
10051;DHT22;5065;46.942;7.432;2023-01-15T00:17:22;11.50;99.90
10051;DHT22;5065;46.942;7.432;2023-01-15T00:19:51;11.40;99.90
10051;DHT22;5065;46.942;7.432;2023-01-15T00:22:18;11.40;99.90
10051;DHT22;5065;46.942;7.432;2023-01-15T00:24:45;11.40;99.90
10051;DHT22;5065;46.942;7.432;2023-01-15T00:27:30;11.40;99.90
10051;DHT22;5065;46.942;7.432;2023-01-15T00:30:08;11.40;99.90
10051;DHT22;5065;46.942;7.432;2023-01-15T00:32:35;11.50;99.90
10051;DHT22;5065;46.942;7.432;2023-01-15T00:35:05;11.40;99.90
10051;DHT22;5065;46.942;7.432;2023-01-15T00:37:32;11.40;99.90
10051;DHT22;5065;46.942;7.432;2023-01-15T00:39:59;11.40;99.90
10051;DHT22;5065;46.942;7.432;2023-01-15T00:42:26;11.40;99.90
10051;DHT22;5065;46.942;7.432;2023-01-15T00:44:53;11.40;99.90
10051;DHT22;5065;46.942;7.432;2023-01-15T00:47:20;11.30;99.90
10051;DHT22;5065;46.942;7.432;2023-01-15T00:49:48;11.30;99.90
10051;DHT22;5065;46.942;7.432;2023-01-15T00:52:17;11.30;99.90
10051;DHT22;5065;46.942;7.432;2023-01-15T00:54:44;11.30;99.90
10051;DHT22;5065;46.942;7.432;2023-01-15T00:57:13;11.20;99.90
10051;DHT22;5065;46.942;7.432;2023-01-15T00:59:40;11.20;99.90
10051;DHT22;5065;46.942;7.432;2023-01-15T01:02:07;11.20;99.90
10051;DHT22;5065;46.942;7.432;2023-01-15T01:04:34;11.20;99.90
10051;DHT22;5065;46.942;7.432;2023-01-15T01:07:01;11.20;99.90
10051;DHT22;5065;46.942;7.432;2023-01-15T01:09:30;11.10;99.90
10051;DHT22;5065;46.942;7.432;2023-01-15T01:11:57;11.10;99.90
10051;DHT22;5065;46.942;7.432;2023-01-15T01:14:24;11.10;99.90
10051;DHT22;5065;46.942;7.432;2023-01-15T01:16:52;11.10;99.90
10051;DHT22;5065;46.942;7.432;2023-01-15T01:19:21;11.00;99.90
10051;DHT22;5065;46.942;7.432;2023-01-15T01:21:49;11.00;99.90
10051;DHT22;5065;46.942;7.432;2023-01-15T01:24:19;10.90;99.90
10051;DHT22;5065;46.942;7.432;2023-01-15T01:26:48;10.90;99.90
10051;DHT22;5065;46.942;7.432;2023-01-15T01:29:17;11.00;99.90
10051;DHT22;5065;46.942;7.432;2023-01-15T01:31:44;10.90;99.90
10051;DHT22;5065;46.942;7.432;2023-01-15T01:34:12;10.90;99.90
10051;DHT22;5065;46.942;7.432;2023-01-15T01:36:42;10.90;99.90
10051;DHT22;5065;46.942;7.432;2023-01-15T01:39:13;10.90;99.90
10051;DHT22;5065;46.942;7.432;2023-01-15T01:41:41;10.90;99.90
10051;DHT22;5065;46.942;7.432;2023-01-15T01:47:14;10.80;99.90
10051;DHT22;5065;46.942;7.432;2023-01-15T01:49:43;10.80;99.90
10051;DHT22;5065;46.942;7.432;2023-01-15T01:52:16;10.80;99.90
10051;DHT22;5065;46.942;7.432;2023-01-15T01:54:45;10.80;99.90
10051;DHT22;5065;46.942;7.432;2023-01-15T01:57:13;10.70;99.90
10051;DHT22;5065;46.942;7.432;2023-01-15T01:59:42;10.80;99.90
10051;DHT22;5065;46.942;7.432;2023-01-15T02:02:11;10.80;99.90
10051;DHT22;5065;46.942;7.432;2023-01-15T02:04:39;10.80;99.90
10051;DHT22;5065;46.942;7.432;2023-01-15T02:07:07;10.70;99.90
10051;DHT22;5065;46.942;7.432;2023-01-15T02:09:34;10.80;99.90
10051;DHT22;5065;46.942;7.432;2023-01-15T02:12:08;10.80;99.90
10051;DHT22;5065;46.942;7.432;2023-01-15T02:14:41;10.80;99.90
10051;DHT22;5065;46.942;7.432;2023-01-15T02:17:15;10.70;99.90
10051;DHT22;5065;46.942;7.432;2023-01-15T02:19:49;10.80;99.90
10051;DHT22;5065;46.942;7.432;2023-01-15T02:22:27;10.80;99.90
10051;DHT22;5065;46.942;7.432;2023-01-15T02:25:04;10.70;99.90
10051;DHT22;5065;46.942;7.432;2023-01-15T02:27:35;10.70;99.90
10051;DHT22;5065;46.942;7.432;2023-01-15T02:30:07;10.70;99.90
10051;DHT22;5065;46.942;7.432;2023-01-15T02:32:39;10.70;99.90
10051;DHT22;5065;46.942;7.432;2023-01-15T02:35:20;10.60;99.90
10051;DHT22;5065;46.942;7.432;2023-01-15T02:37:52;10.60;99.90
10051;DHT22;5065;46.942;7.432;2023-01-15T02:40:21;10.60;99.90
10051;DHT22;5065;46.942;7.432;2023-01-15T02:42:52;10.60;99.90
10051;DHT22;5065;46.942;7.432;2023-01-15T02:45:22;10.60;99.90
10051;DHT22;5065;46.942;7.432;2023-01-15T02:47:53;10.60;99.90
10051;DHT22;5065;46.942;7.432;2023-01-15T02:50:29;10.60;99.90
10051;DHT22;5065;46.942;7.432;2023-01-15T02:53:00;10.60;99.90
10051;DHT22;5065;46.942;7.432;2023-01-15T02:55:33;10.60;99.90
10051;DHT22;5065;46.942;7.432;2023-01-15T02:58:06;10.60;99.90
10051;DHT22;5065;46.942;7.432;2023-01-15T03:00:37;10.60;99.90
10051;DHT22;5065;46.942;7.432;2023-01-15T03:03:09;10.60;99.90
10051;DHT22;5065;46.942;7.432;2023-01-15T03:05:42;10.60;99.90
10051;DHT22;5065;46.942;7.432;2023-01-15T03:08:11;10.60;99.90
10051;DHT22;5065;46.942;7.432;2023-01-15T03:10:44;10.60;99.90
10051;DHT22;5065;46.942;7.432;2023-01-15T03:13:17;10.60;99.90
10051;DHT22;5065;46.942;7.432;2023-01-15T03:15:57;10.60;99.90
10051;DHT22;5065;46.942;7.432;2023-01-15T03:18:46;10.50;99.90
10051;DHT22;5065;46.942;7.432;2023-01-15T03:21:19;10.60;99.90
10051;DHT22;5065;46.942;7.432;2023-01-15T03:23:50;10.60;99.90
10051;DHT22;5065;46.942;7.432;2023-01-15T03:26:18;10.60;99.90
10051;DHT22;5065;46.942;7.432;2023-01-15T03:28:47;10.60;99.90
10051;DHT22;5065;46.942;7.432;2023-01-15T03:31:15;10.60;99.90
10051;DHT22;5065;46.942;7.432;2023-01-15T03:33:43;10.60;99.90
10051;DHT22;5065;46.942;7.432;2023-01-15T03:36:10;10.60;99.90
10051;DHT22;5065;46.942;7.432;2023-01-15T03:38:38;10.60;99.90
10051;DHT22;5065;46.942;7.432;2023-01-15T03:41:14;10.70;99.90
10051;DHT22;5065;46.942;7.432;2023-01-15T03:43:51;10.70;99.90
10051;DHT22;5065;46.942;7.432;2023-01-15T03:46:31;10.70;99.90
10051;DHT22;5065;46.942;7.432;2023-01-15T03:49:08;10.70;99.90
10051;DHT22;5065;46.942;7.432;2023-01-15T03:51:43;10.60;99.90
10051;DHT22;5065;46.942;7.432;2023-01-15T03:54:18;10.60;99.90
10051;DHT22;5065;46.942;7.432;2023-01-15T03:56:51;10.70;99.90
10051;DHT22;5065;46.942;7.432;2023-01-15T03:59:27;10.70;99.90
10051;DHT22;5065;46.942;7.432;2023-01-15T04:01:56;10.70;99.90
10051;DHT22;5065;46.942;7.432;2023-01-15T04:04:25;10.70;99.90
10051;DHT22;5065;46.942;7.432;2023-01-15T04:06:54;10.70;99.90
10051;DHT22;5065;46.942;7.432;2023-01-15T04:09:21;10.70;99.90
10051;DHT22;5065;46.942;7.432;2023-01-15T04:11:49;10.80;99.90
10051;DHT22;5065;46.942;7.432;2023-01-15T04:14:16;10.80;99.90
10051;DHT22;5065;46.942;7.432;2023-01-15T04:16:45;10.80;99.90
10051;DHT22;5065;46.942;7.432;2023-01-15T04:19:12;10.80;99.90
10051;DHT22;5065;46.942;7.432;2023-01-15T04:21:39;10.80;99.90
10051;DHT22;5065;46.942;7.432;2023-01-15T04:24:07;10.80;99.90
10051;DHT22;5065;46.942;7.432;2023-01-15T04:26:34;10.80;99.90
10051;DHT22;5065;46.942;7.432;2023-01-15T04:29:01;10.80;99.90
10051;DHT22;5065;46.942;7.432;2023-01-15T04:31:28;10.90;99.90
10051;DHT22;5065;46.942;7.432;2023-01-15T04:33:58;10.90;99.90
10051;DHT22;5065;46.942;7.432;2023-01-15T04:36:25;10.90;99.90
10051;DHT22;5065;46.942;7.432;2023-01-15T04:38:52;10.90;99.90
10051;DHT22;5065;46.942;7.432;2023-01-15T04:41:22;10.90;99.90
10051;DHT22;5065;46.942;7.432;2023-01-15T04:44:21;10.90;99.90
10051;DHT22;5065;46.942;7.432;2023-01-15T04:46:52;10.90;99.90
10051;DHT22;5065;46.942;7.432;2023-01-15T04:49:21;11.00;99.90
10051;DHT22;5065;46.942;7.432;2023-01-15T04:51:48;11.00;99.90
10051;DHT22;5065;46.942;7.432;2023-01-15T04:54:16;11.00;99.90
10051;DHT22;5065;46.942;7.432;2023-01-15T04:56:45;11.00;99.90
10051;DHT22;5065;46.942;7.432;2023-01-15T04:59:13;11.00;99.90
10051;DHT22;5065;46.942;7.432;2023-01-15T05:01:40;11.10;99.90
10051;DHT22;5065;46.942;7.432;2023-01-15T05:04:07;11.10;99.90
10051;DHT22;5065;46.942;7.432;2023-01-15T05:06:36;11.10;99.90
10051;DHT22;5065;46.942;7.432;2023-01-15T05:09:04;11.10;99.90
10051;DHT22;5065;46.942;7.432;2023-01-15T05:11:34;11.20;99.90
10051;DHT22;5065;46.942;7.432;2023-01-15T05:14:01;11.20;99.90
10051;DHT22;5065;46.942;7.432;2023-01-15T05:16:29;11.20;99.90
10051;DHT22;5065;46.942;7.432;2023-01-15T05:18:57;11.30;99.90
10051;DHT22;5065;46.942;7.432;2023-01-15T05:21:26;11.20;99.90
10051;DHT22;5065;46.942;7.432;2023-01-15T05:23:59;11.20;99.90
10051;DHT22;5065;46.942;7.432;2023-01-15T05:26:27;11.30;99.90
10051;DHT22;5065;46.942;7.432;2023-01-15T05:28:56;11.40;99.90
10051;DHT22;5065;46.942;7.432;2023-01-15T05:31:24;11.40;99.90
10051;DHT22;5065;46.942;7.432;2023-01-15T05:33:52;11.40;99.90
10051;DHT22;5065;46.942;7.432;2023-01-15T05:36:21;11.50;99.90
10051;DHT22;5065;46.942;7.432;2023-01-15T05:38:49;11.50;99.90
10051;DHT22;5065;46.942;7.432;2023-01-15T05:41:19;11.50;99.90
10051;DHT22;5065;46.942;7.432;2023-01-15T05:44:13;11.60;99.90
10051;DHT22;5065;46.942;7.432;2023-01-15T05:46:41;11.50;99.90
10051;DHT22;5065;46.942;7.432;2023-01-15T05:49:11;11.50;99.90
10051;DHT22;5065;46.942;7.432;2023-01-15T05:51:39;11.50;99.90
10051;DHT22;5065;46.942;7.432;2023-01-15T05:54:08;11.60;99.90
10051;DHT22;5065;46.942;7.432;2023-01-15T05:56:38;11.60;99.90
10051;DHT22;5065;46.942;7.432;2023-01-15T05:59:07;11.60;99.90
10051;DHT22;5065;46.942;7.432;2023-01-15T06:01:35;11.60;99.90
10051;DHT22;5065;46.942;7.432;2023-01-15T06:04:04;11.70;99.90
10051;DHT22;5065;46.942;7.432;2023-01-15T06:06:33;11.60;99.90
10051;DHT22;5065;46.942;7.432;2023-01-15T06:09:00;11.60;99.90
10051;DHT22;5065;46.942;7.432;2023-01-15T06:11:27;11.70;99.90
10051;DHT22;5065;46.942;7.432;2023-01-15T06:13:56;11.60;99.90
10051;DHT22;5065;46.942;7.432;2023-01-15T06:16:23;11.60;99.90
10051;DHT22;5065;46.942;7.432;2023-01-15T06:18:50;11.60;99.90
10051;DHT22;5065;46.942;7.432;2023-01-15T06:21:17;11.60;99.90
10051;DHT22;5065;46.942;7.432;2023-01-15T06:23:45;11.60;99.90
10051;DHT22;5065;46.942;7.432;2023-01-15T06:26:14;11.60;99.90
10051;DHT22;5065;46.942;7.432;2023-01-15T06:28:42;11.50;99.90
10051;DHT22;5065;46.942;7.432;2023-01-15T06:31:12;11.50;99.90
10051;DHT22;5065;46.942;7.432;2023-01-15T06:33:40;11.50;99.90
10051;DHT22;5065;46.942;7.432;2023-01-15T06:36:09;11.50;99.90
10051;DHT22;5065;46.942;7.432;2023-01-15T06:38:37;11.50;99.90
10051;DHT22;5065;46.942;7.432;2023-01-15T06:41:06;11.50;99.90
10051;DHT22;5065;46.942;7.432;2023-01-15T06:43:54;11.50;99.90
10051;DHT22;5065;46.942;7.432;2023-01-15T06:46:42;11.50;99.90
10051;DHT22;5065;46.942;7.432;2023-01-15T06:49:27;11.50;99.90
10051;DHT22;5065;46.942;7.432;2023-01-15T06:51:54;11.60;99.90
10051;DHT22;5065;46.942;7.432;2023-01-15T06:54:22;11.60;99.90
10051;DHT22;5065;46.942;7.432;2023-01-15T06:56:49;11.60;99.90
10051;DHT22;5065;46.942;7.432;2023-01-15T06:59:16;11.60;99.90
10051;DHT22;5065;46.942;7.432;2023-01-15T07:01:45;11.60;99.90
10051;DHT22;5065;46.942;7.432;2023-01-15T07:04:13;11.60;99.90
10051;DHT22;5065;46.942;7.432;2023-01-15T07:06:40;11.60;99.90
10051;DHT22;5065;46.942;7.432;2023-01-15T07:09:07;11.60;99.90
10051;DHT22;5065;46.942;7.432;2023-01-15T07:11:35;11.60;99.90
10051;DHT22;5065;46.942;7.432;2023-01-15T07:14:14;11.60;99.90
10051;DHT22;5065;46.942;7.432;2023-01-15T07:16:41;11.60;99.90
10051;DHT22;5065;46.942;7.432;2023-01-15T07:19:10;11.60;99.90
10051;DHT22;5065;46.942;7.432;2023-01-15T07:21:37;11.60;99.90
10051;DHT22;5065;46.942;7.432;2023-01-15T07:24:05;11.50;99.90
10051;DHT22;5065;46.942;7.432;2023-01-15T07:26:33;11.50;99.90
10051;DHT22;5065;46.942;7.432;2023-01-15T07:29:00;11.50;99.90
10051;DHT22;5065;46.942;7.432;2023-01-15T07:31:27;11.50;99.90
10051;DHT22;5065;46.942;7.432;2023-01-15T07:33:55;11.50;99.90
10051;DHT22;5065;46.942;7.432;2023-01-15T07:36:24;11.50;99.90
10051;DHT22;5065;46.942;7.432;2023-01-15T07:38:51;11.50;99.90
10051;DHT22;5065;46.942;7.432;2023-01-15T07:41:18;11.70;99.90
10051;DHT22;5065;46.942;7.432;2023-01-15T07:44:03;11.70;99.90
10051;DHT22;5065;46.942;7.432;2023-01-15T07:46:47;11.80;99.90
10051;DHT22;5065;46.942;7.432;2023-01-15T07:49:32;11.90;99.90
10051;DHT22;5065;46.942;7.432;2023-01-15T07:52:13;11.90;99.90
10051;DHT22;5065;46.942;7.432;2023-01-15T07:54:41;12.00;99.90
10051;DHT22;5065;46.942;7.432;2023-01-15T07:57:08;12.10;99.90
10051;DHT22;5065;46.942;7.432;2023-01-15T07:59:36;12.10;99.90
10051;DHT22;5065;46.942;7.432;2023-01-15T08:02:03;12.20;99.90
10051;DHT22;5065;46.942;7.432;2023-01-15T08:04:30;12.20;99.90
10051;DHT22;5065;46.942;7.432;2023-01-15T08:06:58;12.30;99.90
10051;DHT22;5065;46.942;7.432;2023-01-15T08:09:27;12.30;99.90
10051;DHT22;5065;46.942;7.432;2023-01-15T08:11:55;12.30;99.90
10051;DHT22;5065;46.942;7.432;2023-01-15T08:14:41;12.30;99.90
10051;DHT22;5065;46.942;7.432;2023-01-15T08:17:25;12.40;99.90
10051;DHT22;5065;46.942;7.432;2023-01-15T08:19:53;12.40;99.90
10051;DHT22;5065;46.942;7.432;2023-01-15T08:22:20;12.40;99.90
10051;DHT22;5065;46.942;7.432;2023-01-15T08:24:49;12.40;99.90
10051;DHT22;5065;46.942;7.432;2023-01-15T08:27:16;12.50;99.90
10051;DHT22;5065;46.942;7.432;2023-01-15T08:29:43;12.50;99.90
10051;DHT22;5065;46.942;7.432;2023-01-15T08:32:11;12.50;99.90
10051;DHT22;5065;46.942;7.432;2023-01-15T08:34:38;12.50;99.90
10051;DHT22;5065;46.942;7.432;2023-01-15T08:37:05;12.50;99.90
10051;DHT22;5065;46.942;7.432;2023-01-15T08:39:32;12.50;99.90
10051;DHT22;5065;46.942;7.432;2023-01-15T08:42:00;12.50;99.90
10051;DHT22;5065;46.942;7.432;2023-01-15T08:44:27;12.40;99.90
10051;DHT22;5065;46.942;7.432;2023-01-15T08:46:55;12.40;99.90
10051;DHT22;5065;46.942;7.432;2023-01-15T08:49:22;12.30;99.90
10051;DHT22;5065;46.942;7.432;2023-01-15T08:51:49;12.30;99.90
10051;DHT22;5065;46.942;7.432;2023-01-15T08:54:18;12.10;99.90
10051;DHT22;5065;46.942;7.432;2023-01-15T08:56:45;12.00;99.90
10051;DHT22;5065;46.942;7.432;2023-01-15T08:59:15;11.90;99.90
10051;DHT22;5065;46.942;7.432;2023-01-15T09:01:43;11.70;99.90
10051;DHT22;5065;46.942;7.432;2023-01-15T09:04:13;11.60;99.90
10051;DHT22;5065;46.942;7.432;2023-01-15T09:06:40;11.50;99.90
10051;DHT22;5065;46.942;7.432;2023-01-15T09:09:08;11.40;99.90
10051;DHT22;5065;46.942;7.432;2023-01-15T09:11:35;11.30;99.90
10051;DHT22;5065;46.942;7.432;2023-01-15T09:14:05;11.30;99.90
10051;DHT22;5065;46.942;7.432;2023-01-15T09:16:34;11.20;99.90
10051;DHT22;5065;46.942;7.432;2023-01-15T09:19:01;11.20;99.90
10051;DHT22;5065;46.942;7.432;2023-01-15T09:21:29;11.10;99.90
10051;DHT22;5065;46.942;7.432;2023-01-15T09:23:56;11.00;99.90
10051;DHT22;5065;46.942;7.432;2023-01-15T09:26:29;11.00;99.90
10051;DHT22;5065;46.942;7.432;2023-01-15T09:28:57;10.90;99.90
10051;DHT22;5065;46.942;7.432;2023-01-15T09:31:25;10.80;99.90
10051;DHT22;5065;46.942;7.432;2023-01-15T09:33:53;10.70;99.90
10051;DHT22;5065;46.942;7.432;2023-01-15T09:36:23;10.70;99.90
10051;DHT22;5065;46.942;7.432;2023-01-15T09:38:52;10.70;99.90
10051;DHT22;5065;46.942;7.432;2023-01-15T09:41:21;10.60;99.90
10051;DHT22;5065;46.942;7.432;2023-01-15T09:44:19;10.50;99.90
10051;DHT22;5065;46.942;7.432;2023-01-15T09:46:57;10.40;99.90
10051;DHT22;5065;46.942;7.432;2023-01-15T09:49:42;10.50;99.90
10051;DHT22;5065;46.942;7.432;2023-01-15T09:52:21;10.40;99.90
10051;DHT22;5065;46.942;7.432;2023-01-15T09:54:59;10.40;99.90
10051;DHT22;5065;46.942;7.432;2023-01-15T09:57:29;10.30;99.90
10051;DHT22;5065;46.942;7.432;2023-01-15T09:59:57;10.20;99.90
10051;DHT22;5065;46.942;7.432;2023-01-15T10:02:32;10.10;99.90
10051;DHT22;5065;46.942;7.432;2023-01-15T10:05:08;10.00;99.90
10051;DHT22;5065;46.942;7.432;2023-01-15T10:07:42;10.00;99.90
10051;DHT22;5065;46.942;7.432;2023-01-15T10:10:16;9.90;99.90
10051;DHT22;5065;46.942;7.432;2023-01-15T10:12:44;9.80;99.90
10051;DHT22;5065;46.942;7.432;2023-01-15T10:15:24;9.80;99.90
10051;DHT22;5065;46.942;7.432;2023-01-15T10:17:55;9.70;99.90
10051;DHT22;5065;46.942;7.432;2023-01-15T10:20:37;9.70;99.90
10051;DHT22;5065;46.942;7.432;2023-01-15T10:23:14;9.70;99.90
10051;DHT22;5065;46.942;7.432;2023-01-15T10:25:48;9.60;99.90
10051;DHT22;5065;46.942;7.432;2023-01-15T10:28:21;9.60;99.90
10051;DHT22;5065;46.942;7.432;2023-01-15T10:30:53;9.60;99.90
10051;DHT22;5065;46.942;7.432;2023-01-15T10:33:35;9.50;99.90
10051;DHT22;5065;46.942;7.432;2023-01-15T10:36:12;9.50;99.90
10051;DHT22;5065;46.942;7.432;2023-01-15T10:38:46;9.50;99.90
10051;DHT22;5065;46.942;7.432;2023-01-15T10:41:34;9.50;99.90
10051;DHT22;5065;46.942;7.432;2023-01-15T10:44:09;9.40;99.90
10051;DHT22;5065;46.942;7.432;2023-01-15T10:46:39;9.40;99.90
10051;DHT22;5065;46.942;7.432;2023-01-15T10:49:12;9.40;99.90
10051;DHT22;5065;46.942;7.432;2023-01-15T10:51:45;9.40;99.90
10051;DHT22;5065;46.942;7.432;2023-01-15T10:54:19;9.40;99.90
10051;DHT22;5065;46.942;7.432;2023-01-15T10:56:53;9.40;99.90
10051;DHT22;5065;46.942;7.432;2023-01-15T10:59:34;9.30;99.90
10051;DHT22;5065;46.942;7.432;2023-01-15T11:02:14;9.30;99.90
10051;DHT22;5065;46.942;7.432;2023-01-15T11:04:43;9.40;99.90
10051;DHT22;5065;46.942;7.432;2023-01-15T11:07:12;9.30;99.90
10051;DHT22;5065;46.942;7.432;2023-01-15T11:09:40;9.20;99.90
10051;DHT22;5065;46.942;7.432;2023-01-15T11:12:19;9.20;99.90
10051;DHT22;5065;46.942;7.432;2023-01-15T11:15:13;9.10;99.90
10051;DHT22;5065;46.942;7.432;2023-01-15T11:18:01;9.00;99.90
10051;DHT22;5065;46.942;7.432;2023-01-15T11:20:47;9.10;99.90
10051;DHT22;5065;46.942;7.432;2023-01-15T11:23:18;9.00;99.90
10051;DHT22;5065;46.942;7.432;2023-01-15T11:25:51;9.00;99.90
10051;DHT22;5065;46.942;7.432;2023-01-15T11:28:29;9.00;99.90
10051;DHT22;5065;46.942;7.432;2023-01-15T11:30:57;8.90;99.90
10051;DHT22;5065;46.942;7.432;2023-01-15T11:33:26;8.90;99.90
10051;DHT22;5065;46.942;7.432;2023-01-15T11:35:55;8.80;99.90
10051;DHT22;5065;46.942;7.432;2023-01-15T11:38:26;8.90;99.90
10051;DHT22;5065;46.942;7.432;2023-01-15T11:40:56;8.80;99.90
10051;DHT22;5065;46.942;7.432;2023-01-15T11:43:26;8.80;99.90
10051;DHT22;5065;46.942;7.432;2023-01-15T11:46:26;8.80;99.90
10051;DHT22;5065;46.942;7.432;2023-01-15T11:49:16;8.70;99.90
10051;DHT22;5065;46.942;7.432;2023-01-15T11:52:02;8.70;99.90
10051;DHT22;5065;46.942;7.432;2023-01-15T11:54:32;8.70;99.90
10051;DHT22;5065;46.942;7.432;2023-01-15T11:57:03;8.60;99.90
10051;DHT22;5065;46.942;7.432;2023-01-15T11:59:31;8.60;99.90
10051;DHT22;5065;46.942;7.432;2023-01-15T12:02:00;8.50;99.90
10051;DHT22;5065;46.942;7.432;2023-01-15T12:04:35;8.40;99.90
10051;DHT22;5065;46.942;7.432;2023-01-15T12:07:04;8.30;99.90
10051;DHT22;5065;46.942;7.432;2023-01-15T12:09:46;8.20;99.90
10051;DHT22;5065;46.942;7.432;2023-01-15T12:12:24;8.20;99.90
10051;DHT22;5065;46.942;7.432;2023-01-15T12:15:12;8.30;99.90
10051;DHT22;5065;46.942;7.432;2023-01-15T12:20:52;8.30;99.90
10051;DHT22;5065;46.942;7.432;2023-01-15T12:23:42;8.20;99.90
10051;DHT22;5065;46.942;7.432;2023-01-15T12:26:19;8.20;99.90
10051;DHT22;5065;46.942;7.432;2023-01-15T12:29:03;8.30;99.90
10051;DHT22;5065;46.942;7.432;2023-01-15T12:31:36;8.20;99.90
10051;DHT22;5065;46.942;7.432;2023-01-15T12:34:11;8.10;99.90
10051;DHT22;5065;46.942;7.432;2023-01-15T12:36:44;8.00;99.90
10051;DHT22;5065;46.942;7.432;2023-01-15T12:39:16;8.10;99.90
10051;DHT22;5065;46.942;7.432;2023-01-15T12:41:50;8.10;99.90
10051;DHT22;5065;46.942;7.432;2023-01-15T12:44:39;8.10;99.90
10051;DHT22;5065;46.942;7.432;2023-01-15T12:47:29;8.00;99.90
10051;DHT22;5065;46.942;7.432;2023-01-15T12:50:02;7.90;99.90
10051;DHT22;5065;46.942;7.432;2023-01-15T12:52:36;7.90;99.90
10051;DHT22;5065;46.942;7.432;2023-01-15T12:55:13;7.90;99.90
10051;DHT22;5065;46.942;7.432;2023-01-15T12:57:44;7.90;99.90
10051;DHT22;5065;46.942;7.432;2023-01-15T13:00:17;7.90;99.90
10051;DHT22;5065;46.942;7.432;2023-01-15T13:02:57;7.80;99.90
10051;DHT22;5065;46.942;7.432;2023-01-15T13:05:29;7.80;99.90
10051;DHT22;5065;46.942;7.432;2023-01-15T13:08:01;7.80;99.90
10051;DHT22;5065;46.942;7.432;2023-01-15T13:10:32;7.70;99.90
10051;DHT22;5065;46.942;7.432;2023-01-15T13:13:13;7.60;99.90
10051;DHT22;5065;46.942;7.432;2023-01-15T13:15:48;7.50;99.90
10051;DHT22;5065;46.942;7.432;2023-01-15T13:18:25;7.50;99.90
10051;DHT22;5065;46.942;7.432;2023-01-15T13:20:55;7.50;99.90
10051;DHT22;5065;46.942;7.432;2023-01-15T13:23:35;7.50;99.90
10051;DHT22;5065;46.942;7.432;2023-01-15T13:26:14;7.50;99.90
10051;DHT22;5065;46.942;7.432;2023-01-15T13:28:53;7.40;99.90
10051;DHT22;5065;46.942;7.432;2023-01-15T13:32:01;7.50;99.90
10051;DHT22;5065;46.942;7.432;2023-01-15T13:34:34;7.40;99.90
10051;DHT22;5065;46.942;7.432;2023-01-15T13:37:06;7.40;99.90
10051;DHT22;5065;46.942;7.432;2023-01-15T13:39:38;7.40;99.90
10051;DHT22;5065;46.942;7.432;2023-01-15T13:42:16;7.40;99.90
10051;DHT22;5065;46.942;7.432;2023-01-15T13:45:05;7.40;99.90
10051;DHT22;5065;46.942;7.432;2023-01-15T13:47:35;7.40;99.90
10051;DHT22;5065;46.942;7.432;2023-01-15T13:50:05;7.40;99.90
10051;DHT22;5065;46.942;7.432;2023-01-15T13:52:38;7.40;99.90
10051;DHT22;5065;46.942;7.432;2023-01-15T13:55:14;7.40;99.90
10051;DHT22;5065;46.942;7.432;2023-01-15T13:57:45;7.40;99.90
10051;DHT22;5065;46.942;7.432;2023-01-15T14:00:29;7.40;99.90
10051;DHT22;5065;46.942;7.432;2023-01-15T14:02:58;7.50;99.90
10051;DHT22;5065;46.942;7.432;2023-01-15T14:05:29;7.50;99.90
10051;DHT22;5065;46.942;7.432;2023-01-15T14:07:56;7.50;99.90
10051;DHT22;5065;46.942;7.432;2023-01-15T14:10:34;7.50;99.90
10051;DHT22;5065;46.942;7.432;2023-01-15T14:13:18;7.50;99.90
10051;DHT22;5065;46.942;7.432;2023-01-15T14:16:03;7.50;99.90
10051;DHT22;5065;46.942;7.432;2023-01-15T14:19:04;7.50;99.90
10051;DHT22;5065;46.942;7.432;2023-01-15T14:21:42;7.60;99.90
10051;DHT22;5065;46.942;7.432;2023-01-15T14:24:32;7.60;99.90
10051;DHT22;5065;46.942;7.432;2023-01-15T14:27:07;7.50;99.90
10051;DHT22;5065;46.942;7.432;2023-01-15T14:30:06;7.60;99.90
10051;DHT22;5065;46.942;7.432;2023-01-15T14:32:55;7.60;99.90
10051;DHT22;5065;46.942;7.432;2023-01-15T14:35:25;7.60;99.90
10051;DHT22;5065;46.942;7.432;2023-01-15T14:37:55;7.60;99.90
10051;DHT22;5065;46.942;7.432;2023-01-15T14:40:27;7.60;99.90
10051;DHT22;5065;46.942;7.432;2023-01-15T14:42:57;7.70;99.90
10051;DHT22;5065;46.942;7.432;2023-01-15T14:45:32;7.70;99.90
10051;DHT22;5065;46.942;7.432;2023-01-15T14:48:04;7.70;99.90
10051;DHT22;5065;46.942;7.432;2023-01-15T14:50:34;7.70;99.90
10051;DHT22;5065;46.942;7.432;2023-01-15T14:53:17;7.70;99.90
10051;DHT22;5065;46.942;7.432;2023-01-15T14:55:48;7.80;99.90
10051;DHT22;5065;46.942;7.432;2023-01-15T14:58:27;7.80;99.90
10051;DHT22;5065;46.942;7.432;2023-01-15T15:01:00;7.80;99.90
10051;DHT22;5065;46.942;7.432;2023-01-15T15:03:33;7.70;99.90
10051;DHT22;5065;46.942;7.432;2023-01-15T15:06:04;7.70;99.90
10051;DHT22;5065;46.942;7.432;2023-01-15T15:08:34;7.70;99.90
10051;DHT22;5065;46.942;7.432;2023-01-15T15:11:04;7.80;99.90
10051;DHT22;5065;46.942;7.432;2023-01-15T15:13:55;7.70;99.90
10051;DHT22;5065;46.942;7.432;2023-01-15T15:16:25;7.80;99.90
10051;DHT22;5065;46.942;7.432;2023-01-15T15:18:59;7.80;99.90
10051;DHT22;5065;46.942;7.432;2023-01-15T15:21:30;7.80;99.90
10051;DHT22;5065;46.942;7.432;2023-01-15T15:24:02;7.70;99.90
10051;DHT22;5065;46.942;7.432;2023-01-15T15:26:32;7.70;99.90
10051;DHT22;5065;46.942;7.432;2023-01-15T15:29:02;7.70;99.90
10051;DHT22;5065;46.942;7.432;2023-01-15T15:31:31;7.70;99.90
10051;DHT22;5065;46.942;7.432;2023-01-15T15:34:01;7.60;99.90
10051;DHT22;5065;46.942;7.432;2023-01-15T15:36:30;7.60;99.90
10051;DHT22;5065;46.942;7.432;2023-01-15T15:39:02;7.60;99.90
10051;DHT22;5065;46.942;7.432;2023-01-15T15:41:31;7.50;99.90
10051;DHT22;5065;46.942;7.432;2023-01-15T15:44:27;7.50;99.90
10051;DHT22;5065;46.942;7.432;2023-01-15T15:47:20;7.50;99.90
10051;DHT22;5065;46.942;7.432;2023-01-15T15:50:17;7.50;99.90
10051;DHT22;5065;46.942;7.432;2023-01-15T15:52:44;7.40;99.90
10051;DHT22;5065;46.942;7.432;2023-01-15T15:55:14;7.30;99.90
10051;DHT22;5065;46.942;7.432;2023-01-15T15:57:43;7.30;99.90
10051;DHT22;5065;46.942;7.432;2023-01-15T16:00:17;7.30;99.90
10051;DHT22;5065;46.942;7.432;2023-01-15T16:02:45;7.30;99.90
10051;DHT22;5065;46.942;7.432;2023-01-15T16:05:22;7.30;99.90
10051;DHT22;5065;46.942;7.432;2023-01-15T16:07:50;7.20;99.90
10051;DHT22;5065;46.942;7.432;2023-01-15T16:10:21;7.20;99.90
10051;DHT22;5065;46.942;7.432;2023-01-15T16:12:51;7.20;99.90
10051;DHT22;5065;46.942;7.432;2023-01-15T16:15:20;7.10;99.90
10051;DHT22;5065;46.942;7.432;2023-01-15T16:17:49;7.10;99.90
10051;DHT22;5065;46.942;7.432;2023-01-15T16:20:18;7.10;99.90
10051;DHT22;5065;46.942;7.432;2023-01-15T16:22:50;7.10;99.90
10051;DHT22;5065;46.942;7.432;2023-01-15T16:25:23;7.10;99.90
10051;DHT22;5065;46.942;7.432;2023-01-15T16:27:51;7.00;99.90
10051;DHT22;5065;46.942;7.432;2023-01-15T16:30:18;6.90;99.90